createdAt,value
2022-09-20T00:02:07.201Z,13.30
2022-09-20T00:04:33.880Z,13.30
2022-09-20T00:07:00.520Z,13.30
2022-09-20T00:09:27.184Z,13.30
2022-09-20T00:11:54.314Z,13.30
2022-09-20T00:14:21.004Z,13.30
2022-09-20T00:16:47.670Z,13.20
2022-09-20T00:19:19.713Z,13.20
2022-09-20T00:21:46.443Z,13.20
2022-09-20T00:24:13.297Z,13.20
2022-09-20T00:26:40.640Z,13.20
2022-09-20T00:29:07.818Z,13.10
2022-09-20T00:31:35.646Z,13.10
2022-09-20T00:34:31.672Z,13.10
2022-09-20T00:36:58.325Z,13.00
2022-09-20T00:39:25.037Z,13.00
2022-09-20T00:41:51.660Z,12.90
2022-09-20T00:44:55.304Z,12.90
2022-09-20T00:47:45.023Z,12.90
2022-09-20T00:50:14.640Z,12.90
2022-09-20T00:52:45.398Z,12.80
2022-09-20T00:55:13.586Z,12.80
2022-09-20T00:57:41.025Z,12.70
2022-09-20T01:00:12.126Z,12.70
2022-09-20T01:02:43.337Z,12.60
2022-09-20T01:05:12.334Z,12.60
2022-09-20T01:07:40.067Z,12.60
2022-09-20T01:10:07.043Z,12.60
2022-09-20T01:12:35.467Z,12.50
2022-09-20T01:15:04.961Z,12.50
2022-09-20T01:17:34.769Z,12.50
2022-09-20T01:20:26.966Z,12.50
2022-09-20T01:23:14.427Z,12.50
2022-09-20T01:25:46.535Z,12.50
2022-09-20T01:28:13.699Z,12.50
2022-09-20T01:31:03.851Z,12.50
2022-09-20T01:33:53.455Z,12.50
2022-09-20T01:36:31.568Z,12.50
2022-09-20T01:39:18.853Z,12.50
2022-09-20T01:41:57.773Z,12.50
2022-09-20T01:45:18.155Z,12.50
2022-09-20T01:47:51.125Z,12.50
2022-09-20T01:50:48.016Z,12.50
2022-09-20T01:53:29.252Z,12.50
2022-09-20T01:56:07.529Z,12.50
2022-09-20T01:59:23.197Z,12.60
2022-09-20T02:01:53.749Z,12.50
2022-09-20T02:04:41.347Z,12.60
2022-09-20T02:07:38.984Z,12.60
2022-09-20T02:10:34.557Z,12.60
2022-09-20T02:13:42.102Z,12.60
2022-09-20T02:16:39.421Z,12.60
2022-09-20T02:19:20.968Z,12.70
2022-09-20T02:22:05.153Z,12.70
2022-09-20T02:25:08.799Z,12.70
2022-09-20T02:28:11.677Z,12.70
2022-09-20T02:31:03.151Z,12.70
2022-09-20T02:33:44.995Z,12.70
2022-09-20T02:36:20.368Z,12.70
2022-09-20T02:39:11.853Z,12.70
2022-09-20T02:41:59.211Z,12.70
2022-09-20T02:44:53.749Z,12.70
2022-09-20T02:47:34.226Z,12.70
2022-09-20T02:50:03.702Z,12.70
2022-09-20T02:53:15.523Z,12.70
2022-09-20T02:56:11.882Z,12.60
2022-09-20T02:58:44.436Z,12.60
2022-09-20T03:01:45.381Z,12.60
2022-09-20T03:04:45.663Z,12.60
2022-09-20T03:07:45.877Z,12.60
2022-09-20T03:10:25.917Z,12.50
2022-09-20T03:13:31.048Z,12.50
2022-09-20T03:16:38.290Z,12.50
2022-09-20T03:19:28.089Z,12.50
2022-09-20T03:21:54.647Z,12.40
2022-09-20T03:24:34.903Z,12.40
2022-09-20T03:27:30.887Z,12.40
2022-09-20T03:30:05.148Z,12.40
2022-09-20T03:32:43.322Z,12.40
2022-09-20T03:35:39.750Z,12.30
2022-09-20T03:38:22.275Z,12.30
2022-09-20T03:41:12.129Z,12.30
2022-09-20T03:43:38.704Z,12.20
2022-09-20T03:46:22.205Z,12.20
2022-09-20T03:48:48.801Z,12.20
2022-09-20T03:51:55.476Z,12.10
2022-09-20T03:54:49.883Z,12.10
2022-09-20T03:57:43.494Z,12.10
2022-09-20T04:00:51.454Z,12.00
2022-09-20T04:03:33.033Z,12.00
2022-09-20T04:06:22.776Z,11.90
2022-09-20T04:09:31.303Z,11.90
2022-09-20T04:12:21.412Z,11.90
2022-09-20T04:15:05.089Z,11.80
2022-09-20T04:17:45.153Z,11.80
2022-09-20T04:20:39.633Z,11.80
2022-09-20T04:23:30.810Z,11.80
2022-09-20T04:26:01.188Z,11.80
2022-09-20T04:28:33.395Z,11.70
2022-09-20T04:31:08.113Z,11.70
2022-09-20T04:33:43.227Z,11.70
2022-09-20T04:36:29.848Z,11.70
2022-09-20T04:39:34.260Z,11.70
2022-09-20T04:42:41.741Z,11.60
2022-09-20T04:45:45.094Z,11.60
2022-09-20T04:48:35.167Z,11.60
2022-09-20T04:51:22.803Z,11.60
2022-09-20T04:54:27.172Z,11.50
2022-09-20T04:57:24.868Z,11.50
2022-09-20T05:00:15.949Z,11.50
2022-09-20T05:03:20.900Z,11.50
2022-09-20T05:05:50.271Z,11.50
2022-09-20T05:08:35.513Z,11.50
2022-09-20T05:11:36.424Z,11.50
2022-09-20T05:17:34.640Z,11.40
2022-09-20T05:20:24.434Z,11.40
2022-09-20T05:23:08.911Z,11.40
2022-09-20T05:25:52.082Z,11.30
2022-09-20T05:28:50.064Z,11.30
2022-09-20T05:31:33.873Z,11.30
2022-09-20T05:34:25.646Z,11.20
2022-09-20T05:37:20.543Z,11.20
2022-09-20T05:40:06.045Z,11.20
2022-09-20T05:43:00.368Z,11.20
2022-09-20T05:46:01.027Z,11.10
2022-09-20T05:48:52.615Z,11.10
2022-09-20T05:51:40.832Z,11.10
2022-09-20T05:54:49.054Z,11.00
2022-09-20T05:57:40.970Z,11.00
2022-09-20T06:00:15.939Z,11.00
2022-09-20T06:02:45.561Z,11.00
2022-09-20T06:05:28.780Z,11.00
2022-09-20T06:08:37.897Z,11.00
2022-09-20T06:11:36.293Z,11.00
2022-09-20T06:14:17.538Z,11.00
2022-09-20T06:16:59.469Z,11.00
2022-09-20T06:20:06.949Z,11.00
2022-09-20T06:22:45.963Z,11.00
2022-09-20T06:25:20.129Z,11.00
2022-09-20T06:27:59.008Z,11.00
2022-09-20T06:30:34.779Z,11.00
2022-09-20T06:33:18.231Z,11.00
2022-09-20T06:36:41.974Z,11.00
2022-09-20T06:39:54.868Z,11.10
2022-09-20T06:42:24.311Z,11.10
2022-09-20T06:44:53.597Z,11.10
2022-09-20T06:47:20.193Z,11.10
2022-09-20T06:49:47.702Z,11.10
2022-09-20T06:52:16.175Z,11.10
2022-09-20T06:54:45.788Z,11.10
2022-09-20T06:57:15.863Z,11.10
2022-09-20T06:59:42.520Z,11.10
2022-09-20T07:02:09.197Z,11.20
2022-09-20T07:04:35.873Z,11.20
2022-09-20T07:07:08.695Z,11.20
2022-09-20T07:09:36.166Z,11.30
2022-09-20T07:12:03.017Z,11.30
2022-09-20T07:14:29.649Z,11.40
2022-09-20T07:16:56.294Z,11.40
2022-09-20T07:19:23.307Z,11.50
2022-09-20T07:21:50.031Z,11.60
2022-09-20T07:24:16.654Z,11.70
2022-09-20T07:26:58.623Z,11.70
2022-09-20T07:29:25.698Z,11.80
2022-09-20T07:31:53.030Z,11.90
2022-09-20T07:34:20.247Z,12.00
2022-09-20T07:36:51.166Z,12.20
2022-09-20T07:39:18.225Z,12.20
2022-09-20T07:41:51.199Z,12.40
2022-09-20T07:44:21.983Z,12.50
2022-09-20T07:46:52.501Z,12.60
2022-09-20T07:49:19.834Z,12.70
2022-09-20T07:51:46.629Z,12.80
2022-09-20T07:54:13.497Z,12.90
2022-09-20T07:56:40.630Z,13.00
2022-09-20T07:59:07.473Z,13.10
2022-09-20T08:01:34.154Z,13.20
2022-09-20T08:04:01.039Z,13.30
2022-09-20T08:06:27.707Z,13.30
2022-09-20T08:08:55.651Z,13.40
2022-09-20T08:11:27.768Z,13.50
2022-09-20T08:14:11.035Z,13.50
2022-09-20T08:16:40.376Z,13.50
2022-09-20T08:19:07.202Z,13.60
2022-09-20T08:21:35.163Z,13.60
2022-09-20T08:24:03.117Z,13.60
2022-09-20T08:26:35.656Z,13.70
2022-09-20T08:29:02.640Z,13.70
2022-09-20T08:31:35.358Z,13.80
2022-09-20T08:34:03.850Z,13.80
2022-09-20T08:36:36.127Z,13.80
2022-09-20T08:42:12.882Z,13.90
2022-09-20T08:45:00.094Z,13.90
2022-09-20T08:47:34.305Z,14.00
2022-09-20T08:50:17.230Z,14.10
2022-09-20T08:52:48.444Z,14.10
2022-09-20T08:55:19.372Z,14.10
2022-09-20T08:57:54.549Z,14.20
2022-09-20T09:00:23.900Z,14.30
2022-09-20T09:02:54.647Z,14.30
2022-09-20T09:05:48.266Z,14.40
2022-09-20T09:08:19.018Z,14.40
2022-09-20T09:10:54.014Z,14.50
2022-09-20T09:13:32.354Z,14.50
2022-09-20T09:16:09.880Z,14.60
2022-09-20T09:18:40.146Z,14.70
2022-09-20T09:21:08.535Z,14.70
2022-09-20T09:23:42.136Z,14.70
2022-09-20T09:26:17.301Z,14.80
2022-09-20T09:28:44.152Z,14.80
2022-09-20T09:31:28.272Z,14.90
2022-09-20T09:33:55.924Z,15.00
2022-09-20T09:36:25.325Z,15.00
2022-09-20T09:39:31.165Z,15.00
2022-09-20T09:42:00.957Z,15.10
2022-09-20T09:44:29.920Z,15.10
2022-09-20T09:46:58.282Z,15.10
2022-09-20T09:49:35.919Z,15.20
2022-09-20T09:52:24.243Z,15.20
2022-09-20T09:54:53.839Z,15.20
2022-09-20T09:57:38.535Z,15.20
2022-09-20T10:00:21.274Z,15.20
2022-09-20T10:03:06.947Z,15.20
2022-09-20T10:05:36.727Z,15.20
2022-09-20T10:08:10.943Z,15.20
2022-09-20T10:11:26.077Z,15.10
2022-09-20T10:13:58.798Z,15.10
2022-09-20T10:16:51.702Z,15.00
2022-09-20T10:19:42.178Z,15.00
2022-09-20T10:22:12.443Z,14.90
2022-09-20T10:25:03.416Z,14.90
2022-09-20T10:27:59.595Z,14.80
2022-09-20T10:30:58.296Z,14.80
2022-09-20T10:33:33.640Z,14.80
2022-09-20T10:36:12.879Z,14.80
2022-09-20T10:39:07.027Z,14.90
2022-09-20T10:42:05.342Z,14.90
2022-09-20T10:44:57.994Z,15.00
2022-09-20T10:47:33.171Z,15.10
2022-09-20T10:50:21.730Z,15.10
2022-09-20T10:53:11.461Z,15.20
2022-09-20T10:55:47.217Z,15.30
2022-09-20T10:58:30.505Z,15.30
2022-09-20T11:01:20.877Z,15.40
2022-09-20T11:04:06.359Z,15.50
2022-09-20T11:06:51.819Z,15.50
2022-09-20T11:09:22.972Z,15.60
2022-09-20T11:11:58.857Z,15.70
2022-09-20T11:14:38.423Z,15.70
2022-09-20T11:17:22.735Z,15.80
2022-09-20T11:19:52.226Z,15.90
2022-09-20T11:22:30.180Z,16.00
2022-09-20T11:25:26.069Z,16.00
2022-09-20T11:28:09.633Z,16.10
2022-09-20T11:30:46.015Z,16.20
2022-09-20T11:33:25.314Z,16.20
2022-09-20T11:35:56.337Z,16.30
2022-09-20T11:38:28.289Z,16.30
2022-09-20T11:41:02.121Z,16.40
2022-09-20T11:43:31.044Z,16.40
2022-09-20T11:46:05.785Z,16.40
2022-09-20T11:48:38.572Z,16.40
2022-09-20T11:51:15.134Z,16.40
2022-09-20T11:53:56.800Z,16.50
2022-09-20T11:56:32.278Z,16.50
2022-09-20T11:59:05.038Z,16.50
2022-09-20T12:01:41.821Z,16.60
2022-09-20T12:04:38.628Z,16.60
2022-09-20T12:07:19.151Z,16.70
2022-09-20T12:10:02.581Z,16.70
2022-09-20T12:12:36.537Z,16.70
2022-09-20T12:15:22.093Z,16.80
2022-09-20T12:17:49.638Z,16.80
2022-09-20T12:20:44.696Z,16.80
2022-09-20T12:23:45.195Z,16.90
2022-09-20T12:26:20.989Z,16.90
2022-09-20T12:28:52.693Z,16.90
2022-09-20T12:31:19.868Z,17.00
2022-09-20T12:34:03.489Z,17.00
2022-09-20T12:36:36.099Z,17.10
2022-09-20T12:39:09.504Z,17.10
2022-09-20T12:41:57.224Z,17.20
2022-09-20T12:44:37.647Z,17.30
2022-09-20T12:47:10.090Z,17.40
2022-09-20T12:50:04.263Z,17.40
2022-09-20T12:52:52.230Z,17.40
2022-09-20T12:55:38.441Z,17.30
2022-09-20T12:58:14.493Z,17.30
2022-09-20T13:00:57.734Z,17.30
2022-09-20T13:03:34.851Z,17.30
2022-09-20T13:06:07.364Z,17.20
2022-09-20T13:09:04.453Z,17.20
2022-09-20T13:11:33.869Z,17.20
2022-09-20T13:14:09.488Z,17.10
2022-09-20T13:16:36.182Z,17.10
2022-09-20T13:19:29.150Z,17.10
2022-09-20T13:22:04.662Z,17.00
2022-09-20T13:24:36.896Z,17.00
2022-09-20T13:27:11.619Z,16.90
2022-09-20T13:29:41.255Z,16.90
2022-09-20T13:32:22.466Z,16.90
2022-09-20T13:35:07.609Z,16.90
2022-09-20T13:37:36.797Z,16.80
2022-09-20T13:40:05.467Z,16.80
2022-09-20T13:42:35.666Z,16.80
2022-09-20T13:45:04.118Z,16.80
2022-09-20T13:47:32.367Z,16.90
2022-09-20T13:50:27.860Z,16.90
2022-09-20T13:52:57.174Z,16.90
2022-09-20T13:55:29.955Z,17.00
2022-09-20T13:58:00.013Z,17.10
2022-09-20T14:00:29.103Z,17.10
2022-09-20T14:02:57.446Z,17.10
2022-09-20T14:05:28.907Z,17.10
2022-09-20T14:07:57.312Z,17.10
2022-09-20T14:10:37.126Z,17.10
2022-09-20T14:13:07.357Z,17.10
2022-09-20T14:15:38.262Z,17.10
2022-09-20T14:18:09.016Z,17.10
2022-09-20T14:20:35.779Z,17.20
2022-09-20T14:23:02.521Z,17.30
2022-09-20T14:25:29.358Z,17.40
2022-09-20T14:28:17.588Z,17.40
2022-09-20T14:30:46.748Z,17.60
2022-09-20T14:33:20.708Z,17.80
2022-09-20T14:35:50.261Z,18.10
2022-09-20T14:38:24.224Z,18.30
2022-09-20T14:40:51.873Z,18.40
2022-09-20T14:43:24.648Z,18.50
2022-09-20T14:45:55.000Z,18.50
2022-09-20T14:48:21.993Z,18.40
2022-09-20T14:51:17.875Z,18.30
2022-09-20T14:53:50.195Z,18.40
2022-09-20T14:56:26.999Z,18.50
2022-09-20T14:59:11.444Z,18.60
2022-09-20T15:02:15.784Z,18.80
2022-09-20T15:04:54.241Z,18.90
2022-09-20T15:07:21.225Z,18.90
2022-09-20T15:09:48.065Z,18.90
2022-09-20T15:12:17.775Z,18.80
2022-09-20T15:14:45.228Z,18.70
2022-09-20T15:17:29.961Z,18.70
2022-09-20T15:19:57.280Z,18.50
2022-09-20T15:22:24.043Z,18.40
2022-09-20T15:24:50.701Z,18.30
2022-09-20T15:27:17.397Z,18.20
2022-09-20T15:29:44.041Z,18.20
2022-09-20T15:32:11.253Z,18.20
2022-09-20T15:34:38.256Z,18.20
2022-09-20T15:37:05.004Z,18.10
2022-09-20T15:39:31.648Z,18.20
2022-09-20T15:41:58.364Z,18.30
2022-09-20T15:44:25.502Z,18.40
2022-09-20T15:46:53.613Z,18.40
2022-09-20T15:49:21.689Z,18.50
2022-09-20T15:51:48.320Z,18.60
2022-09-20T15:54:15.407Z,18.60
2022-09-20T15:56:42.231Z,18.60
2022-09-20T15:59:11.014Z,18.60
2022-09-20T16:01:42.908Z,18.60
2022-09-20T16:04:10.589Z,18.60
2022-09-20T16:06:38.105Z,18.50
2022-09-20T16:09:05.661Z,18.40
2022-09-20T16:11:32.350Z,18.30
2022-09-20T16:14:00.180Z,18.20
2022-09-20T16:16:34.004Z,18.10
2022-09-20T16:19:18.065Z,18.10
2022-09-20T16:21:53.736Z,18.00
2022-09-20T16:24:31.434Z,17.90
2022-09-20T16:27:00.644Z,17.90
2022-09-20T16:29:29.399Z,17.90
2022-09-20T16:31:57.586Z,17.90
2022-09-20T16:34:32.498Z,17.90
2022-09-20T16:37:01.814Z,17.90
2022-09-20T16:39:30.327Z,17.90
2022-09-20T16:42:04.704Z,17.90
2022-09-20T16:44:36.250Z,17.90
2022-09-20T16:47:07.881Z,18.00
2022-09-20T16:49:36.116Z,18.00
2022-09-20T16:52:07.556Z,18.10
2022-09-20T16:54:34.573Z,18.00
2022-09-20T16:57:01.487Z,18.00
2022-09-20T16:59:28.181Z,17.90
2022-09-20T17:01:55.076Z,17.80
2022-09-20T17:04:21.828Z,17.80
2022-09-20T17:06:49.960Z,17.70
2022-09-20T17:09:17.361Z,17.60
2022-09-20T17:11:50.257Z,17.60
2022-09-20T17:14:19.640Z,17.50
2022-09-20T17:16:50.350Z,17.40
2022-09-20T17:19:19.170Z,17.30
2022-09-20T17:21:50.967Z,17.20
2022-09-20T17:24:22.138Z,17.10
2022-09-20T17:26:50.633Z,17.00
2022-09-20T17:29:18.814Z,17.00
2022-09-20T17:31:53.253Z,16.90
2022-09-20T17:34:21.761Z,16.80
2022-09-20T17:36:50.206Z,16.60
2022-09-20T17:39:17.465Z,16.60
2022-09-20T17:41:46.763Z,16.50
2022-09-20T17:44:14.177Z,16.40
2022-09-20T17:46:43.508Z,16.30
2022-09-20T17:49:14.965Z,16.20
2022-09-20T17:51:42.813Z,16.10
2022-09-20T17:54:13.663Z,16.00
2022-09-20T17:56:42.663Z,15.90
2022-09-20T17:59:11.301Z,15.80
2022-09-20T18:01:38.983Z,15.70
2022-09-20T18:04:07.634Z,15.60
2022-09-20T18:06:42.133Z,15.60
2022-09-20T18:09:11.575Z,15.50
2022-09-20T18:11:41.577Z,15.40
2022-09-20T18:14:15.833Z,15.30
2022-09-20T18:16:44.205Z,15.30
2022-09-20T18:19:11.550Z,15.20
2022-09-20T18:21:39.671Z,15.10
2022-09-20T18:24:08.674Z,15.10
2022-09-20T18:26:36.068Z,15.00
2022-09-20T18:29:13.959Z,15.00
2022-09-20T18:31:54.217Z,14.90
2022-09-20T18:34:23.454Z,14.80
2022-09-20T18:36:53.121Z,14.80
2022-09-20T18:39:46.065Z,14.70
2022-09-20T18:42:12.954Z,14.70
2022-09-20T18:44:42.273Z,14.60
2022-09-20T18:47:09.293Z,14.60
2022-09-20T18:49:36.269Z,14.50
2022-09-20T18:52:03.094Z,14.50
2022-09-20T18:54:33.361Z,14.40
2022-09-20T18:57:00.315Z,14.40
2022-09-20T18:59:28.130Z,14.40
2022-09-20T19:02:20.896Z,14.30
2022-09-20T19:04:47.489Z,14.20
2022-09-20T19:07:57.561Z,14.20
2022-09-20T19:10:28.649Z,14.10
2022-09-20T19:13:00.833Z,14.10
2022-09-20T19:15:48.432Z,14.10
2022-09-20T19:18:15.057Z,14.00
2022-09-20T19:21:11.779Z,14.00
2022-09-20T19:24:05.872Z,14.00
2022-09-20T19:26:38.482Z,13.90
2022-09-20T19:29:22.639Z,13.90
2022-09-20T19:31:52.092Z,13.90
2022-09-20T19:34:26.504Z,13.80
2022-09-20T19:36:56.200Z,13.80
2022-09-20T19:39:36.896Z,13.80
2022-09-20T19:42:17.947Z,13.80
2022-09-20T19:45:13.636Z,13.70
2022-09-20T19:48:01.688Z,13.70
2022-09-20T19:50:28.641Z,13.70
2022-09-20T19:52:58.344Z,13.60
2022-09-20T19:55:25.401Z,13.60
2022-09-20T19:57:53.282Z,13.60
2022-09-20T20:00:21.279Z,13.60
2022-09-20T20:02:48.589Z,13.60
2022-09-20T20:05:18.313Z,13.60
2022-09-20T20:08:32.993Z,13.60
2022-09-20T20:11:10.090Z,13.60
2022-09-20T20:14:03.391Z,13.60
2022-09-20T20:16:51.213Z,13.50
2022-09-20T20:19:51.157Z,13.60
2022-09-20T20:22:28.423Z,13.50
2022-09-20T20:24:56.651Z,13.50
2022-09-20T20:27:25.413Z,13.50
2022-09-20T20:29:52.218Z,13.50
2022-09-20T20:32:18.932Z,13.50
2022-09-20T20:34:46.822Z,13.50
2022-09-20T20:37:13.883Z,13.50
2022-09-20T20:39:40.505Z,13.50
2022-09-20T20:42:08.384Z,13.40
2022-09-20T20:44:35.076Z,13.40
2022-09-20T20:47:05.851Z,13.40
2022-09-20T20:49:32.724Z,13.40
2022-09-20T20:52:03.957Z,13.40
2022-09-20T20:54:32.079Z,13.40
2022-09-20T20:56:59.289Z,13.40
2022-09-20T20:59:25.997Z,13.40
2022-09-20T21:01:52.726Z,13.40
2022-09-20T21:04:19.936Z,13.30
2022-09-20T21:06:46.632Z,13.30
2022-09-20T21:09:13.485Z,13.30
2022-09-20T21:11:44.700Z,13.30
2022-09-20T21:14:12.701Z,13.30
2022-09-20T21:16:44.987Z,13.30
2022-09-20T21:19:18.135Z,13.30
2022-09-20T21:21:47.844Z,13.20
2022-09-20T21:24:17.092Z,13.30
2022-09-20T21:26:45.640Z,13.20
2022-09-20T21:29:14.475Z,13.20
2022-09-20T21:31:44.556Z,13.20
2022-09-20T21:34:13.358Z,13.20
2022-09-20T21:36:44.557Z,13.20
2022-09-20T21:39:11.854Z,13.20
2022-09-20T21:41:39.559Z,13.10
2022-09-20T21:44:07.509Z,13.10
2022-09-20T21:46:36.961Z,13.10
2022-09-20T21:49:05.572Z,13.10
2022-09-20T21:51:33.019Z,13.10
2022-09-20T21:54:01.356Z,13.10
2022-09-20T21:56:33.317Z,13.10
2022-09-20T21:59:02.519Z,13.10
2022-09-20T22:01:34.799Z,13.00
2022-09-20T22:04:06.492Z,13.00
2022-09-20T22:06:36.239Z,13.00
2022-09-20T22:09:09.272Z,13.00
2022-09-20T22:11:41.542Z,13.00
2022-09-20T22:14:09.732Z,13.00
2022-09-20T22:16:38.920Z,12.90
2022-09-20T22:19:07.835Z,12.90
2022-09-20T22:21:45.910Z,12.90
2022-09-20T22:24:13.927Z,12.90
2022-09-20T22:26:45.262Z,12.90
2022-09-20T22:29:12.546Z,12.80
2022-09-20T22:31:45.087Z,12.80
2022-09-20T22:34:18.375Z,12.80
2022-09-20T22:36:46.065Z,12.80
2022-09-20T22:39:13.989Z,12.70
2022-09-20T22:41:42.634Z,12.70
2022-09-20T22:44:10.064Z,12.70
2022-09-20T22:46:38.915Z,12.70
2022-09-20T22:49:06.996Z,12.70
2022-09-20T22:51:34.087Z,12.60
2022-09-20T22:54:05.136Z,12.60
2022-09-20T22:56:33.047Z,12.60
2022-09-20T22:59:11.249Z,12.60
2022-09-20T23:01:43.353Z,12.50
2022-09-20T23:04:15.937Z,12.50
2022-09-20T23:06:44.232Z,12.50
2022-09-20T23:09:13.687Z,12.40
2022-09-20T23:11:42.639Z,12.40
2022-09-20T23:14:12.012Z,12.30
2022-09-20T23:16:39.863Z,12.20
2022-09-20T23:19:08.008Z,12.20
2022-09-20T23:21:37.714Z,12.20
2022-09-20T23:24:06.913Z,12.20
2022-09-20T23:26:36.068Z,12.10
2022-09-20T23:29:04.538Z,12.10
2022-09-20T23:31:34.563Z,12.10
2022-09-20T23:34:03.017Z,12.00
2022-09-20T23:36:32.435Z,12.00
2022-09-20T23:39:00.007Z,12.00
2022-09-20T23:41:28.221Z,11.90
2022-09-20T23:43:56.771Z,11.90
2022-09-20T23:46:25.495Z,11.90
2022-09-20T23:48:52.950Z,11.80
2022-09-20T23:51:24.251Z,11.80
2022-09-20T23:53:52.191Z,11.80
2022-09-20T23:56:19.749Z,11.70
2022-09-20T23:58:48.620Z,11.70
